Reagan, Texas
Current Conditions -  °F | °C
As of 4:35 PM on Friday 19 Dec 2014 (Local Time) from KT35 Reporting Station
Haze Haze  
Wind Chill: 51°   Ceiling: 600
Heat Index: 51°   Visibility: 5mi
Dew Point: 49°   Wind: 9mph
Humidity: 93%   Direction: 360°N
Pressure: 30.13"   Gusts: NA
Location:  31.22°N, 96.79°W
Report Text: KT35 192235Z AUTO 36008KT 5SM BR OVC006 10/09 A3013 RMK AO2 T01030092
Loading
Personal Weather Stations






























Interactive Weather Map New forecast layout! Learn more

10-Day Weather Forecast

Advertisements
Track Severe Weather on mobile